»·PEaware :: ASA233 KPDX-KSFO

ASA233 :: KPDX-KSFO

FLIGHT INFORMATION

Flight Status: Arrived
Operator:
Alaska Airlines
More flights by this operator :: More flights under this callsign
Pilot: Max W. (2591)
Aircraft: AIRBUS A320
(A320)
More flights by this aircraft type
Origin: KPDX Portland Intl
United States
Destination: KSFO San Francisco Intl
United States
More flights between these airports :: More routes between these airports
Route: +MINNE5 FAMUK Q3 FOWND MLBEC BDEGA2
File this flight plan on PilotEdge
Remarks:
Altitude:
(Current/Filed)
35,000ft
Speed:
(Current/Filed)
450kts
Departed: 03-Sep-18 12:40 PM
Arrived: 03-Sep-18 02:05 PM
Distance/Time
Traveled:
478nm/1:25
Distance/Time
To Go:
Arrived

Flight Plot

Page will automatically refresh every two minutes.


Map Options




Map Legend


Flown Route
Filed Route
Departure Airport
Arrival Airport
Navaid (VOR, NDB)
Fix

Horizontal Profiles

Position Reports

Time Latitude Longitude Heading Altitude Ground
Speed
03-Sep-18 12:13 45.588636 -122.596933 5 25ft 0kts
03-Sep-18 12:14 45.588636 -122.596933 5 25ft 0kts
03-Sep-18 12:15 45.588636 -122.596933 5 25ft 0kts
03-Sep-18 12:16 45.588636 -122.596933 5 25ft 0kts
03-Sep-18 12:17 45.588636 -122.596933 5 25ft 0kts
03-Sep-18 12:18 45.588636 -122.596933 5 25ft 0kts
03-Sep-18 12:19 45.588636 -122.596933 5 25ft 0kts
03-Sep-18 12:20 45.588636 -122.596933 5 25ft 0kts
03-Sep-18 12:21 45.588636 -122.596933 5 25ft 0kts
03-Sep-18 12:22 45.588635 -122.596933 5 25ft 0kts
03-Sep-18 12:23 45.588635 -122.596933 5 25ft 0kts
03-Sep-18 12:24 45.588635 -122.596933 5 25ft 0kts
03-Sep-18 12:25 45.588635 -122.596933 5 25ft 0kts
03-Sep-18 12:26 45.588635 -122.596933 5 25ft 0kts
03-Sep-18 12:27 45.588635 -122.596933 5 25ft 0kts
03-Sep-18 12:28 45.588635 -122.596933 5 25ft 0kts
03-Sep-18 12:29 45.588635 -122.596933 5 25ft 0kts
03-Sep-18 12:30 45.588635 -122.596933 5 25ft 0kts
03-Sep-18 12:31 45.588635 -122.596933 5 25ft 0kts
03-Sep-18 12:32 45.588635 -122.596933 5 25ft 0kts
03-Sep-18 12:33 45.588635 -122.596933 5 25ft 0kts
03-Sep-18 12:34 45.588635 -122.596933 5 25ft 0kts
03-Sep-18 12:35 45.588635 -122.596933 5 25ft 0kts
03-Sep-18 12:36 45.588392 -122.596968 5 25ft 2kts
03-Sep-18 12:37 45.587927 -122.597375 84 25ft 2kts
03-Sep-18 12:38 45.587999 -122.597727 121 25ft 0kts
03-Sep-18 12:39 45.587703 -122.597024 119 25ft 16kts
03-Sep-18 12:40 45.584074 -122.589875 121 25ft 20kts
03-Sep-18 12:41 45.581628 -122.583706 143 25ft 2kts
03-Sep-18 12:42 45.585837 -122.597551 300 86ft 149kts
03-Sep-18 12:43 45.609118 -122.654887 303 3623ft 194kts
03-Sep-18 12:44 45.642554 -122.734071 301 6813ft 267kts
03-Sep-18 12:45 45.670112 -122.832410 261 10982ft 285kts
03-Sep-18 12:46 45.625885 -122.922251 196 14797ft 318kts
03-Sep-18 12:47 45.534958 -122.932971 188 18087ft 338kts
03-Sep-18 12:48 45.439527 -122.943661 189 21027ft 353kts
03-Sep-18 12:48 45.357233 -122.953171 189 23227ft 365kts
03-Sep-18 12:50 45.240204 -122.978553 214 25982ft 365kts
03-Sep-18 12:51 45.152102 -123.052103 216 28157ft 374kts
03-Sep-18 12:51 45.076908 -123.115159 216 29726ft 384kts
03-Sep-18 12:52 44.973795 -123.157711 180 31346ft 414kts
03-Sep-18 12:54 44.839927 -123.150725 180 33119ft 425kts
03-Sep-18 12:54 44.740394 -123.146334 180 33714ft 445kts
03-Sep-18 12:55 44.614830 -123.140865 180 34588ft 459kts
03-Sep-18 12:56 44.487786 -123.135338 181 35199ft 457kts
03-Sep-18 12:58 44.336981 -123.130018 181 35194ft 470kts
03-Sep-18 12:58 44.228651 -123.126128 181 35192ft 469kts
03-Sep-18 12:59 44.098407 -123.121510 181 35192ft 473kts
03-Sep-18 13:00 43.967044 -123.116861 181 35192ft 473kts
03-Sep-18 13:01 43.838998 -123.112340 181 35885ft 469kts
03-Sep-18 13:02 43.709955 -123.107817 181 36923ft 467kts
03-Sep-18 13:03 43.580650 -123.103317 181 37752ft 467kts
03-Sep-18 13:04 43.451189 -123.098821 181 38471ft 468kts
03-Sep-18 13:05 43.321456 -123.094334 181 39096ft 468kts
03-Sep-18 13:06 43.192034 -123.089873 181 39157ft 467kts
03-Sep-18 13:07 43.061992 -123.085416 181 39148ft 468kts
03-Sep-18 13:08 42.932237 -123.080987 179 39136ft 469kts
03-Sep-18 13:09 42.805095 -123.076659 179 39130ft 469kts
03-Sep-18 13:10 42.675435 -123.072267 179 39104ft 468kts
03-Sep-18 13:11 42.545298 -123.067881 179 39102ft 469kts
03-Sep-18 13:12 42.415513 -123.063586 179 39103ft 469kts
03-Sep-18 13:13 42.285370 -123.059380 179 39103ft 469kts
03-Sep-18 13:14 42.155859 -123.055205 179 39103ft 469kts
03-Sep-18 13:15 42.025476 -123.051019 179 39105ft 469kts
03-Sep-18 13:16 41.898868 -123.046970 179 39108ft 469kts
03-Sep-18 13:17 41.769571 -123.042852 179 39113ft 469kts
03-Sep-18 13:18 41.639561 -123.038729 179 39113ft 469kts
03-Sep-18 13:19 41.509576 -123.034622 179 39113ft 469kts
03-Sep-18 13:20 41.379397 -123.030527 179 39114ft 470kts
03-Sep-18 13:21 41.249260 -123.026528 179 39115ft 470kts
03-Sep-18 13:22 41.118995 -123.022596 179 39116ft 470kts
03-Sep-18 13:23 40.987658 -123.018657 182 38913ft 477kts
03-Sep-18 13:24 40.859800 -123.014818 183 38927ft 480kts
03-Sep-18 13:25 40.727038 -123.010836 183 38956ft 480kts
03-Sep-18 13:26 40.594405 -123.006881 183 38950ft 480kts
03-Sep-18 13:27 40.461412 -123.002934 183 38939ft 480kts
03-Sep-18 13:28 40.328295 -122.999003 183 38932ft 480kts
03-Sep-18 13:29 40.194974 -122.995077 183 38936ft 480kts
03-Sep-18 13:30 40.062211 -122.991184 183 38943ft 479kts
03-Sep-18 13:31 39.929519 -122.987312 183 38944ft 479kts
03-Sep-18 13:32 39.800425 -122.983532 183 38950ft 471kts
03-Sep-18 13:33 39.671436 -122.979792 183 38960ft 467kts
03-Sep-18 13:34 39.541806 -122.976080 183 38959ft 468kts
03-Sep-18 13:35 39.412448 -122.972356 183 38957ft 468kts
03-Sep-18 13:36 39.283064 -122.968648 183 38957ft 468kts
03-Sep-18 13:37 39.153601 -122.964950 183 38959ft 468kts
03-Sep-18 13:38 39.024069 -122.961822 184 37509ft 467kts
03-Sep-18 13:39 38.898349 -122.959401 184 34901ft 472kts
03-Sep-18 13:40 38.767750 -122.927314 173 31839ft 487kts
03-Sep-18 13:41 38.638646 -122.889026 172 28985ft 474kts
03-Sep-18 13:42 38.521226 -122.854257 172 27184ft 414kts
03-Sep-18 13:43 38.412060 -122.822273 171 25109ft 397kts
03-Sep-18 13:44 38.307238 -122.791580 170 23026ft 379kts
03-Sep-18 13:45 38.207389 -122.762415 169 21001ft 362kts
03-Sep-18 13:46 38.111813 -122.734645 168 19028ft 346kts
03-Sep-18 13:47 38.020719 -122.708244 167 17127ft 331kts
03-Sep-18 13:48 37.932759 -122.682814 167 15275ft 320kts
03-Sep-18 13:49 37.858900 -122.630355 140 13484ft 313kts
03-Sep-18 13:50 37.793038 -122.560415 139 11690ft 307kts
03-Sep-18 13:51 37.731268 -122.495025 139 11032ft 276kts
03-Sep-18 13:52 37.670910 -122.430902 139 11018ft 291kts
03-Sep-18 13:53 37.608860 -122.367213 152 10551ft 287kts
03-Sep-18 13:54 37.537942 -122.323468 154 8990ft 282kts
03-Sep-18 13:55 37.469965 -122.279122 139 7103ft 274kts
03-Sep-18 13:56 37.429200 -122.198817 114 6046ft 264kts
03-Sep-18 13:57 37.402932 -122.127440 114 6033ft 208kts
03-Sep-18 13:58 37.412531 -122.068621 25 6025ft 202kts
03-Sep-18 13:59 37.463602 -122.061086 325 4435ft 200kts
03-Sep-18 14:00 37.504222 -122.105249 302 3055ft 194kts
03-Sep-18 14:01 37.530359 -122.163901 297 3022ft 189kts
03-Sep-18 14:02 37.554482 -122.221667 297 2368ft 179kts
03-Sep-18 14:03 37.577126 -122.276076 298 1441ft 165kts
03-Sep-18 14:04 37.594742 -122.317893 301 710ft 122kts
03-Sep-18 14:05 37.610644 -122.355877 301 124ft 123kts
03-Sep-18 14:07 37.618955 -122.378539 263 21ft 7kts

Navigation Log

Ident Type
1. KPDX Airport
2. RIVRR Fix
3. COSUG Fix
4. BISLE Fix
5. MINNE Fix
6. FAMUK Fix
7. FAMUK Navaid
8. FRFLY Navaid
9. FINER Navaid
10. FOWND Navaid
11. MLBEC Fix
12. JONNE Fix
13. BGGLO Fix
14. LOZIT Fix
15. BDEGA Fix
16. CORKK Fix
17. BRIXX Fix
18. KSFO Airport